Startpagina
METAR-TAF:

METAR-TAF

Vliegvelden :

Mendoza, Argentinië

breedte: 32-50S, lengte: 068-47W, hoogte: 705 m

Actueel weer

Dit bericht is 58 minuten geleden gemaakt, om 21:00 UTC
Wind 9 kt uit het zuidoosten
Temperatuur 20°C
Vochtigheid 56%
Druk 1018 hPa
Zicht 10 km of meer
Gebroken wolken op 4000 ft

METAR: SAME 182100Z 14009KT 9999 BKN040 20/11 Q1018

Tijdstip: 18:58 (21:58 UTC)

Verwachting

Dit bericht is 4 uur en het 58 minuten geleden gemaakt, om 17:00 UTC
Verwachting geldig van 18 om 18 UTC tot 19 om 18 UTC
Wind 15 kt uit het zuidzuidoosten
Zicht 10 km of meer
Gebroken wolken op 4000 ft
Wijzigt naar
van 18 om 19 UTC tot 18 om 21 UTC
Wind 10 kt uit het zuidzuidoosten
Zicht: 6000 m
Geheel bewolkt op 3000 ft
motregen
Wijzigt naar
van 19 om 00 UTC tot 19 om 02 UTC
Wind 10 kt uit het zuiden
Zicht 10 km of meer
Geheel bewolkt op 4000 ft

TAF: SAME 181700Z 1818/1918 16015KT 9999 BKN040 TX24/1820Z TN14/1910Z BECMG 1819/1821 16010KT 6000 DZ OVC030 BECMG 1900/1902 18010KT 9999 OVC040

Waarnemingen en weersverwachtingen van meer dan 4000 vliegvelden (METAR en TAF).

De beschikbare stations zijn de gele en rode punten op de kaart.

Ga met uw muis naar het station om de naam te zien.

Klik dan om waarnemingen en weersverwachtingen te zien.

kaart wijzigen: klik op de groene knoppen met een zwart kruis om in te zoomen, op de groene knop met een streepje om uit te zoomen of op de groene pijlen voor aangrenzende kaarten.


METAR-TAF: